sensor_id;sensor_type;location;lat;lon;timestamp;P1;durP1;ratioP1;P2;durP2;ratioP2
18188;SDS011;9219;50.396;8.546;2023-05-16T00:00:08;76.30;;;33.23;;
18188;SDS011;9219;50.396;8.546;2023-05-16T00:02:36;83.40;;;35.87;;
18188;SDS011;9219;50.396;8.546;2023-05-16T00:05:04;81.43;;;34.80;;
18188;SDS011;9219;50.396;8.546;2023-05-16T00:07:33;80.17;;;34.37;;
18188;SDS011;9219;50.396;8.546;2023-05-16T00:12:41;85.50;;;34.60;;
18188;SDS011;9219;50.396;8.546;2023-05-16T00:15:09;80.33;;;35.03;;
18188;SDS011;9219;50.396;8.546;2023-05-16T00:17:39;85.43;;;35.73;;
18188;SDS011;9219;50.396;8.546;2023-05-16T00:20:08;84.20;;;35.40;;
18188;SDS011;9219;50.396;8.546;2023-05-16T00:22:39;77.60;;;34.83;;
18188;SDS011;9219;50.396;8.546;2023-05-16T00:25:08;90.43;;;36.80;;
18188;SDS011;9219;50.396;8.546;2023-05-16T00:27:35;100.33;;;38.57;;
18188;SDS011;9219;50.396;8.546;2023-05-16T00:34:38;100.40;;;42.33;;
18188;SDS011;9219;50.396;8.546;2023-05-16T00:37:06;102.53;;;41.17;;
18188;SDS011;9219;50.396;8.546;2023-05-16T00:39:33;96.40;;;38.87;;
18188;SDS011;9219;50.396;8.546;2023-05-16T00:42:00;104.57;;;39.17;;
18188;SDS011;9219;50.396;8.546;2023-05-16T00:44:28;116.43;;;42.43;;
18188;SDS011;9219;50.396;8.546;2023-05-16T00:46:55;92.57;;;37.63;;
18188;SDS011;9219;50.396;8.546;2023-05-16T00:49:25;81.27;;;36.33;;
18188;SDS011;9219;50.396;8.546;2023-05-16T00:51:54;95.40;;;37.50;;
18188;SDS011;9219;50.396;8.546;2023-05-16T00:59:27;104.67;;;39.40;;
18188;SDS011;9219;50.396;8.546;2023-05-16T01:01:54;98.03;;;38.87;;
18188;SDS011;9219;50.396;8.546;2023-05-16T01:04:22;110.60;;;40.20;;
18188;SDS011;9219;50.396;8.546;2023-05-16T01:06:50;104.13;;;41.13;;
18188;SDS011;9219;50.396;8.546;2023-05-16T01:09:18;102.83;;;39.70;;
18188;SDS011;9219;50.396;8.546;2023-05-16T01:11:55;98.10;;;39.07;;
18188;SDS011;9219;50.396;8.546;2023-05-16T01:14:32;105.43;;;39.83;;
18188;SDS011;9219;50.396;8.546;2023-05-16T01:17:06;100.93;;;39.20;;
18188;SDS011;9219;50.396;8.546;2023-05-16T01:25:04;101.20;;;41.47;;
18188;SDS011;9219;50.396;8.546;2023-05-16T01:27:38;102.60;;;40.83;;
18188;SDS011;9219;50.396;8.546;2023-05-16T01:30:12;110.33;;;41.20;;
18188;SDS011;9219;50.396;8.546;2023-05-16T01:32:41;111.70;;;42.43;;
18188;SDS011;9219;50.396;8.546;2023-05-16T01:35:10;131.43;;;45.10;;
18188;SDS011;9219;50.396;8.546;2023-05-16T01:37:41;131.77;;;46.50;;
18188;SDS011;9219;50.396;8.546;2023-05-16T01:40:15;121.23;;;44.57;;
18188;SDS011;9219;50.396;8.546;2023-05-16T01:47:54;127.83;;;43.03;;
18188;SDS011;9219;50.396;8.546;2023-05-16T01:50:28;132.43;;;43.97;;
18188;SDS011;9219;50.396;8.546;2023-05-16T01:53:01;146.87;;;47.70;;
18188;SDS011;9219;50.396;8.546;2023-05-16T01:55:36;123.57;;;43.90;;
18188;SDS011;9219;50.396;8.546;2023-05-16T01:58:08;141.13;;;47.93;;
18188;SDS011;9219;50.396;8.546;2023-05-16T02:00:36;124.23;;;43.50;;
18188;SDS011;9219;50.396;8.546;2023-05-16T02:03:06;126.93;;;46.27;;
18188;SDS011;9219;50.396;8.546;2023-05-16T02:08:20;129.97;;;44.83;;
18188;SDS011;9219;50.396;8.546;2023-05-16T02:10:47;144.90;;;46.07;;
18188;SDS011;9219;50.396;8.546;2023-05-16T02:13:15;131.77;;;45.70;;
18188;SDS011;9219;50.396;8.546;2023-05-16T02:15:42;137.17;;;45.37;;
18188;SDS011;9219;50.396;8.546;2023-05-16T02:18:10;132.17;;;43.73;;
18188;SDS011;9219;50.396;8.546;2023-05-16T02:20:37;135.07;;;45.30;;
18188;SDS011;9219;50.396;8.546;2023-05-16T02:23:05;125.90;;;43.13;;
18188;SDS011;9219;50.396;8.546;2023-05-16T02:25:33;114.70;;;41.43;;
18188;SDS011;9219;50.396;8.546;2023-05-16T02:33:09;103.63;;;38.73;;
18188;SDS011;9219;50.396;8.546;2023-05-16T02:35:37;109.03;;;37.53;;
18188;SDS011;9219;50.396;8.546;2023-05-16T02:38:04;102.53;;;36.77;;
18188;SDS011;9219;50.396;8.546;2023-05-16T02:40:32;108.30;;;38.57;;
18188;SDS011;9219;50.396;8.546;2023-05-16T02:43:00;106.90;;;37.67;;
18188;SDS011;9219;50.396;8.546;2023-05-16T02:45:27;109.37;;;38.47;;
18188;SDS011;9219;50.396;8.546;2023-05-16T02:47:55;108.67;;;38.13;;
18188;SDS011;9219;50.396;8.546;2023-05-16T02:50:24;108.07;;;35.83;;
18188;SDS011;9219;50.396;8.546;2023-05-16T02:58:23;93.87;;;36.80;;
18188;SDS011;9219;50.396;8.546;2023-05-16T03:00:50;79.20;;;30.63;;
18188;SDS011;9219;50.396;8.546;2023-05-16T03:03:17;111.23;;;38.50;;
18188;SDS011;9219;50.396;8.546;2023-05-16T03:05:45;99.40;;;35.40;;
18188;SDS011;9219;50.396;8.546;2023-05-16T03:08:13;108.00;;;35.73;;
18188;SDS011;9219;50.396;8.546;2023-05-16T03:10:41;113.93;;;35.17;;
18188;SDS011;9219;50.396;8.546;2023-05-16T03:13:08;108.40;;;37.57;;
18188;SDS011;9219;50.396;8.546;2023-05-16T03:15:37;101.33;;;36.30;;
18188;SDS011;9219;50.396;8.546;2023-05-16T03:23:10;95.63;;;32.17;;
18188;SDS011;9219;50.396;8.546;2023-05-16T03:25:37;107.17;;;35.90;;
18188;SDS011;9219;50.396;8.546;2023-05-16T03:28:05;98.97;;;35.13;;
18188;SDS011;9219;50.396;8.546;2023-05-16T03:30:33;109.13;;;33.30;;
18188;SDS011;9219;50.396;8.546;2023-05-16T03:33:02;103.20;;;34.97;;
18188;SDS011;9219;50.396;8.546;2023-05-16T03:35:30;88.53;;;31.30;;
18188;SDS011;9219;50.396;8.546;2023-05-16T03:37:58;113.23;;;33.17;;
18188;SDS011;9219;50.396;8.546;2023-05-16T03:45:48;74.47;;;27.47;;
18188;SDS011;9219;50.396;8.546;2023-05-16T03:48:16;76.93;;;26.53;;
18188;SDS011;9219;50.396;8.546;2023-05-16T03:50:44;89.43;;;25.63;;
18188;SDS011;9219;50.396;8.546;2023-05-16T03:53:11;63.20;;;24.20;;
18188;SDS011;9219;50.396;8.546;2023-05-16T03:55:38;64.33;;;24.67;;
18188;SDS011;9219;50.396;8.546;2023-05-16T03:58:07;63.07;;;20.93;;
18188;SDS011;9219;50.396;8.546;2023-05-16T04:00:34;62.70;;;21.30;;
18188;SDS011;9219;50.396;8.546;2023-05-16T04:03:03;69.33;;;22.73;;
18188;SDS011;9219;50.396;8.546;2023-05-16T04:10:36;63.53;;;21.83;;
18188;SDS011;9219;50.396;8.546;2023-05-16T04:13:04;69.20;;;22.70;;
18188;SDS011;9219;50.396;8.546;2023-05-16T04:15:31;61.87;;;21.70;;
18188;SDS011;9219;50.396;8.546;2023-05-16T04:17:58;54.57;;;20.17;;
18188;SDS011;9219;50.396;8.546;2023-05-16T04:20:27;60.07;;;19.87;;
18188;SDS011;9219;50.396;8.546;2023-05-16T04:22:58;51.87;;;19.17;;
18188;SDS011;9219;50.396;8.546;2023-05-16T04:25:25;49.00;;;19.00;;
18188;SDS011;9219;50.396;8.546;2023-05-16T04:30:33;44.43;;;16.17;;
18188;SDS011;9219;50.396;8.546;2023-05-16T04:33:00;36.13;;;15.00;;
18188;SDS011;9219;50.396;8.546;2023-05-16T04:35:27;41.47;;;16.53;;
18188;SDS011;9219;50.396;8.546;2023-05-16T04:37:55;36.63;;;14.13;;
18188;SDS011;9219;50.396;8.546;2023-05-16T04:40:23;34.27;;;13.53;;
18188;SDS011;9219;50.396;8.546;2023-05-16T04:42:50;34.87;;;13.70;;
18188;SDS011;9219;50.396;8.546;2023-05-16T04:45:19;35.90;;;12.53;;
18188;SDS011;9219;50.396;8.546;2023-05-16T04:53:22;32.33;;;12.20;;
18188;SDS011;9219;50.396;8.546;2023-05-16T04:55:50;33.07;;;12.13;;
18188;SDS011;9219;50.396;8.546;2023-05-16T04:58:17;28.97;;;11.80;;
18188;SDS011;9219;50.396;8.546;2023-05-16T05:00:44;27.10;;;10.73;;
18188;SDS011;9219;50.396;8.546;2023-05-16T05:03:12;27.80;;;10.27;;
18188;SDS011;9219;50.396;8.546;2023-05-16T05:05:40;28.97;;;11.03;;
18188;SDS011;9219;50.396;8.546;2023-05-16T05:08:07;27.33;;;9.77;;
18188;SDS011;9219;50.396;8.546;2023-05-16T05:10:36;21.73;;;8.73;;
18188;SDS011;9219;50.396;8.546;2023-05-16T05:18:10;11.33;;;5.40;;
18188;SDS011;9219;50.396;8.546;2023-05-16T05:20:37;13.27;;;5.83;;
18188;SDS011;9219;50.396;8.546;2023-05-16T05:23:05;10.80;;;5.27;;
18188;SDS011;9219;50.396;8.546;2023-05-16T05:25:33;9.87;;;4.53;;
18188;SDS011;9219;50.396;8.546;2023-05-16T05:28:03;10.67;;;4.73;;
18188;SDS011;9219;50.396;8.546;2023-05-16T05:30:31;9.10;;;4.60;;
18188;SDS011;9219;50.396;8.546;2023-05-16T05:32:58;5.50;;;3.57;;
18188;SDS011;9219;50.396;8.546;2023-05-16T05:43:22;7.90;;;3.17;;
18188;SDS011;9219;50.396;8.546;2023-05-16T05:45:50;9.90;;;3.83;;
18188;SDS011;9219;50.396;8.546;2023-05-16T05:48:18;6.53;;;3.13;;
18188;SDS011;9219;50.396;8.546;2023-05-16T05:50:46;6.93;;;3.77;;
18188;SDS011;9219;50.396;8.546;2023-05-16T05:53:14;5.30;;;3.17;;
18188;SDS011;9219;50.396;8.546;2023-05-16T05:55:42;5.47;;;3.23;;
18188;SDS011;9219;50.396;8.546;2023-05-16T05:58:09;5.60;;;3.43;;
18188;SDS011;9219;50.396;8.546;2023-05-16T06:03:49;109.70;;;13.77;;
18188;SDS011;9219;50.396;8.546;2023-05-16T06:06:17;307.70;;;31.73;;
18188;SDS011;9219;50.396;8.546;2023-05-16T06:08:44;201.87;;;24.47;;
18188;SDS011;9219;50.396;8.546;2023-05-16T06:11:13;188.93;;;20.80;;
18188;SDS011;9219;50.396;8.546;2023-05-16T06:13:40;170.73;;;17.63;;
18188;SDS011;9219;50.396;8.546;2023-05-16T06:16:08;9.47;;;3.70;;
18188;SDS011;9219;50.396;8.546;2023-05-16T06:18:35;86.80;;;12.23;;
18188;SDS011;9219;50.396;8.546;2023-05-16T06:29:18;76.97;;;10.30;;
18188;SDS011;9219;50.396;8.546;2023-05-16T06:31:47;75.73;;;10.13;;
18188;SDS011;9219;50.396;8.546;2023-05-16T06:34:17;4.10;;;3.07;;
18188;SDS011;9219;50.396;8.546;2023-05-16T06:36:45;7.63;;;3.53;;
18188;SDS011;9219;50.396;8.546;2023-05-16T06:39:12;2.60;;;2.20;;
18188;SDS011;9219;50.396;8.546;2023-05-16T06:41:40;5.43;;;1.57;;
18188;SDS011;9219;50.396;8.546;2023-05-16T06:44:07;1.63;;;1.20;;
18188;SDS011;9219;50.396;8.546;2023-05-16T06:52:11;1.00;;;0.70;;
18188;SDS011;9219;50.396;8.546;2023-05-16T06:54:39;0.80;;;0.77;;
18188;SDS011;9219;50.396;8.546;2023-05-16T06:57:07;2.40;;;0.80;;
18188;SDS011;9219;50.396;8.546;2023-05-16T06:59:34;1.27;;;1.00;;
18188;SDS011;9219;50.396;8.546;2023-05-16T07:02:02;1.20;;;1.10;;
18188;SDS011;9219;50.396;8.546;2023-05-16T07:04:30;1.43;;;0.80;;
18188;SDS011;9219;50.396;8.546;2023-05-16T07:06:57;3.27;;;0.87;;
18188;SDS011;9219;50.396;8.546;2023-05-16T07:09:27;1.33;;;0.73;;
18188;SDS011;9219;50.396;8.546;2023-05-16T07:17:14;2.20;;;0.83;;
18188;SDS011;9219;50.396;8.546;2023-05-16T07:19:42;1.47;;;1.30;;
18188;SDS011;9219;50.396;8.546;2023-05-16T07:22:09;2.50;;;1.27;;
18188;SDS011;9219;50.396;8.546;2023-05-16T07:24:38;2.63;;;1.10;;
18188;SDS011;9219;50.396;8.546;2023-05-16T07:27:05;2.30;;;1.37;;
18188;SDS011;9219;50.396;8.546;2023-05-16T07:29:33;4.57;;;1.60;;
18188;SDS011;9219;50.396;8.546;2023-05-16T07:32:02;4.73;;;1.57;;
18188;SDS011;9219;50.396;8.546;2023-05-16T07:34:32;5.93;;;1.67;;
18188;SDS011;9219;50.396;8.546;2023-05-16T07:42:26;7.30;;;2.37;;
18188;SDS011;9219;50.396;8.546;2023-05-16T07:44:54;3.60;;;1.90;;
18188;SDS011;9219;50.396;8.546;2023-05-16T07:47:22;4.83;;;2.00;;
18188;SDS011;9219;50.396;8.546;2023-05-16T07:49:49;3.47;;;2.33;;
18188;SDS011;9219;50.396;8.546;2023-05-16T07:52:17;2.97;;;1.80;;
18188;SDS011;9219;50.396;8.546;2023-05-16T07:54:45;4.33;;;3.10;;
18188;SDS011;9219;50.396;8.546;2023-05-16T07:57:12;3.43;;;1.97;;
18188;SDS011;9219;50.396;8.546;2023-05-16T07:59:43;4.53;;;1.97;;
18188;SDS011;9219;50.396;8.546;2023-05-16T08:05:19;3.07;;;2.20;;
18188;SDS011;9219;50.396;8.546;2023-05-16T08:07:48;4.53;;;2.97;;
18188;SDS011;9219;50.396;8.546;2023-05-16T08:10:19;3.03;;;2.10;;
18188;SDS011;9219;50.396;8.546;2023-05-16T08:12:50;3.23;;;2.37;;
18188;SDS011;9219;50.396;8.546;2023-05-16T08:15:19;3.00;;;2.20;;
18188;SDS011;9219;50.396;8.546;2023-05-16T08:17:48;3.73;;;2.10;;
18188;SDS011;9219;50.396;8.546;2023-05-16T08:20:17;8.63;;;2.93;;
18188;SDS011;9219;50.396;8.546;2023-05-16T08:25:28;9.03;;;2.40;;
18188;SDS011;9219;50.396;8.546;2023-05-16T08:27:58;7.77;;;3.10;;
18188;SDS011;9219;50.396;8.546;2023-05-16T08:30:28;3.00;;;2.40;;
18188;SDS011;9219;50.396;8.546;2023-05-16T08:32:58;3.40;;;2.80;;
18188;SDS011;9219;50.396;8.546;2023-05-16T08:35:31;3.87;;;2.33;;
18188;SDS011;9219;50.396;8.546;2023-05-16T08:38:01;3.30;;;2.60;;
18188;SDS011;9219;50.396;8.546;2023-05-16T08:40:32;4.73;;;3.20;;
18188;SDS011;9219;50.396;8.546;2023-05-16T08:45:53;9.90;;;3.77;;
18188;SDS011;9219;50.396;8.546;2023-05-16T08:48:22;5.53;;;3.17;;
18188;SDS011;9219;50.396;8.546;2023-05-16T08:50:52;10.00;;;3.33;;
18188;SDS011;9219;50.396;8.546;2023-05-16T08:53:21;7.43;;;3.13;;
18188;SDS011;9219;50.396;8.546;2023-05-16T08:55:59;7.80;;;3.57;;
18188;SDS011;9219;50.396;8.546;2023-05-16T08:58:29;7.37;;;3.30;;
18188;SDS011;9219;50.396;8.546;2023-05-16T09:03:52;7.40;;;4.33;;
18188;SDS011;9219;50.396;8.546;2023-05-16T09:06:23;9.63;;;4.07;;
18188;SDS011;9219;50.396;8.546;2023-05-16T09:08:51;9.30;;;4.73;;
18188;SDS011;9219;50.396;8.546;2023-05-16T09:11:19;9.80;;;4.63;;
18188;SDS011;9219;50.396;8.546;2023-05-16T09:13:49;16.93;;;5.43;;
18188;SDS011;9219;50.396;8.546;2023-05-16T09:16:18;6.63;;;4.37;;
18188;SDS011;9219;50.396;8.546;2023-05-16T09:21:39;9.77;;;4.20;;
18188;SDS011;9219;50.396;8.546;2023-05-16T09:24:08;14.30;;;6.03;;
18188;SDS011;9219;50.396;8.546;2023-05-16T09:26:38;8.83;;;4.13;;
18188;SDS011;9219;50.396;8.546;2023-05-16T09:29:10;8.27;;;4.70;;
18188;SDS011;9219;50.396;8.546;2023-05-16T09:31:39;14.37;;;4.77;;
18188;SDS011;9219;50.396;8.546;2023-05-16T09:34:09;12.83;;;4.23;;
18188;SDS011;9219;50.396;8.546;2023-05-16T09:39:36;5.50;;;2.60;;
18188;SDS011;9219;50.396;8.546;2023-05-16T09:42:09;14.70;;;3.93;;
18188;SDS011;9219;50.396;8.546;2023-05-16T09:44:41;7.23;;;2.90;;
18188;SDS011;9219;50.396;8.546;2023-05-16T09:47:14;9.00;;;3.00;;
18188;SDS011;9219;50.396;8.546;2023-05-16T09:49:44;15.23;;;6.03;;
18188;SDS011;9219;50.396;8.546;2023-05-16T09:52:15;17.10;;;4.17;;
18188;SDS011;9219;50.396;8.546;2023-05-16T09:54:47;6.63;;;2.30;;
18188;SDS011;9219;50.396;8.546;2023-05-16T10:00:01;6.03;;;2.47;;
18188;SDS011;9219;50.396;8.546;2023-05-16T10:02:36;5.63;;;2.10;;
18188;SDS011;9219;50.396;8.546;2023-05-16T10:05:06;5.30;;;2.40;;
18188;SDS011;9219;50.396;8.546;2023-05-16T10:07:35;7.83;;;2.97;;
18188;SDS011;9219;50.396;8.546;2023-05-16T10:10:07;6.40;;;1.90;;
18188;SDS011;9219;50.396;8.546;2023-05-16T10:12:37;4.60;;;1.90;;
18188;SDS011;9219;50.396;8.546;2023-05-16T10:15:09;8.00;;;2.20;;
18188;SDS011;9219;50.396;8.546;2023-05-16T10:20:19;8.33;;;1.87;;
18188;SDS011;9219;50.396;8.546;2023-05-16T10:22:50;10.27;;;2.43;;
18188;SDS011;9219;50.396;8.546;2023-05-16T10:25:23;9.00;;;2.40;;
18188;SDS011;9219;50.396;8.546;2023-05-16T10:27:56;9.27;;;1.73;;
18188;SDS011;9219;50.396;8.546;2023-05-16T10:30:26;5.83;;;2.07;;
18188;SDS011;9219;50.396;8.546;2023-05-16T10:32:55;5.37;;;1.93;;
18188;SDS011;9219;50.396;8.546;2023-05-16T10:35:25;8.10;;;2.13;;
18188;SDS011;9219;50.396;8.546;2023-05-16T10:43:03;5.47;;;1.50;;
18188;SDS011;9219;50.396;8.546;2023-05-16T10:45:34;5.90;;;1.60;;
18188;SDS011;9219;50.396;8.546;2023-05-16T10:48:10;4.30;;;1.43;;
18188;SDS011;9219;50.396;8.546;2023-05-16T10:50:41;3.53;;;1.40;;
18188;SDS011;9219;50.396;8.546;2023-05-16T10:53:14;5.67;;;1.40;;
18188;SDS011;9219;50.396;8.546;2023-05-16T10:55:49;9.60;;;2.10;;
18188;SDS011;9219;50.396;8.546;2023-05-16T11:01:33;2.13;;;1.20;;
18188;SDS011;9219;50.396;8.546;2023-05-16T11:04:08;6.70;;;1.23;;
18188;SDS011;9219;50.396;8.546;2023-05-16T11:06:50;4.23;;;1.07;;
18188;SDS011;9219;50.396;8.546;2023-05-16T11:09:25;3.10;;;0.93;;
18188;SDS011;9219;50.396;8.546;2023-05-16T11:11:55;10.77;;;1.30;;
18188;SDS011;9219;50.396;8.546;2023-05-16T11:14:34;3.70;;;1.03;;
18188;SDS011;9219;50.396;8.546;2023-05-16T11:23:18;5.37;;;1.00;;
18188;SDS011;9219;50.396;8.546;2023-05-16T11:25:50;5.50;;;1.13;;
18188;SDS011;9219;50.396;8.546;2023-05-16T11:28:24;6.80;;;1.23;;
18188;SDS011;9219;50.396;8.546;2023-05-16T11:30:59;1.57;;;0.80;;
18188;SDS011;9219;50.396;8.546;2023-05-16T11:33:32;2.07;;;0.90;;
18188;SDS011;9219;50.396;8.546;2023-05-16T11:36:07;6.93;;;1.47;;
18188;SDS011;9219;50.396;8.546;2023-05-16T11:42:47;7.57;;;1.80;;
18188;SDS011;9219;50.396;8.546;2023-05-16T11:45:21;7.47;;;1.60;;
18188;SDS011;9219;50.396;8.546;2023-05-16T11:47:51;4.47;;;1.10;;
18188;SDS011;9219;50.396;8.546;2023-05-16T11:50:20;2.53;;;0.90;;
18188;SDS011;9219;50.396;8.546;2023-05-16T11:52:50;5.37;;;1.27;;
18188;SDS011;9219;50.396;8.546;2023-05-16T11:55:21;11.17;;;1.57;;
18188;SDS011;9219;50.396;8.546;2023-05-16T12:01:02;6.43;;;1.30;;
18188;SDS011;9219;50.396;8.546;2023-05-16T12:03:32;5.60;;;0.90;;
18188;SDS011;9219;50.396;8.546;2023-05-16T12:06:04;2.63;;;1.13;;
18188;SDS011;9219;50.396;8.546;2023-05-16T12:08:38;7.47;;;1.13;;
18188;SDS011;9219;50.396;8.546;2023-05-16T12:11:18;2.40;;;1.27;;
18188;SDS011;9219;50.396;8.546;2023-05-16T12:13:49;5.83;;;1.37;;
18188;SDS011;9219;50.396;8.546;2023-05-16T12:16:22;5.33;;;1.10;;
18188;SDS011;9219;50.396;8.546;2023-05-16T12:23:28;2.90;;;0.70;;
18188;SDS011;9219;50.396;8.546;2023-05-16T12:26:01;4.93;;;1.00;;
18188;SDS011;9219;50.396;8.546;2023-05-16T12:28:34;3.97;;;1.73;;
18188;SDS011;9219;50.396;8.546;2023-05-16T12:31:10;2.10;;;0.80;;
18188;SDS011;9219;50.396;8.546;2023-05-16T12:33:58;7.67;;;1.17;;
18188;SDS011;9219;50.396;8.546;2023-05-16T12:36:30;6.63;;;1.13;;
18188;SDS011;9219;50.396;8.546;2023-05-16T12:39:02;7.53;;;1.43;;
18188;SDS011;9219;50.396;8.546;2023-05-16T12:46:10;7.00;;;1.00;;
18188;SDS011;9219;50.396;8.546;2023-05-16T12:48:40;8.87;;;1.73;;
18188;SDS011;9219;50.396;8.546;2023-05-16T12:51:10;4.70;;;1.00;;
18188;SDS011;9219;50.396;8.546;2023-05-16T12:53:40;3.10;;;1.03;;
18188;SDS011;9219;50.396;8.546;2023-05-16T12:56:27;4.33;;;1.73;;
18188;SDS011;9219;50.396;8.546;2023-05-16T12:58:56;4.23;;;1.13;;
18188;SDS011;9219;50.396;8.546;2023-05-16T13:01:27;2.30;;;1.07;;
18188;SDS011;9219;50.396;8.546;2023-05-16T13:04:22;1.50;;;0.87;;
18188;SDS011;9219;50.396;8.546;2023-05-16T13:06:52;8.97;;;1.50;;
18188;SDS011;9219;50.396;8.546;2023-05-16T13:09:25;7.13;;;1.43;;
18188;SDS011;9219;50.396;8.546;2023-05-16T13:11:59;7.60;;;1.33;;
18188;SDS011;9219;50.396;8.546;2023-05-16T13:14:29;2.37;;;0.60;;
18188;SDS011;9219;50.396;8.546;2023-05-16T13:17:00;5.40;;;1.87;;
18188;SDS011;9219;50.396;8.546;2023-05-16T20:33:46;3.00;;;1.50;;
